createdAt,value
2018-04-13T00:01:46.565Z,8.07
2018-04-13T00:04:13.694Z,6.30
2018-04-13T00:06:40.793Z,3.27
2018-04-13T00:09:07.927Z,6.13
2018-04-13T00:11:35.071Z,3.43
2018-04-13T00:14:07.552Z,4.10
2018-04-13T00:16:35.399Z,6.07
2018-04-13T00:19:02.486Z,3.23
2018-04-13T00:21:29.618Z,4.53
2018-04-13T00:23:57.505Z,5.33
2018-04-13T00:26:24.595Z,4.33
2018-04-13T00:28:51.756Z,2.97
2018-04-13T00:31:19.019Z,5.03
2018-04-13T00:33:46.111Z,5.03
2018-04-13T00:36:13.222Z,2.43
2018-04-13T00:38:40.319Z,6.40
2018-04-13T00:41:07.432Z,3.93
2018-04-13T00:43:34.535Z,4.30
2018-04-13T00:46:01.677Z,2.10
2018-04-13T00:48:28.745Z,5.53
2018-04-13T00:50:55.885Z,5.40
2018-04-13T00:53:23.024Z,3.40
2018-04-13T00:55:50.138Z,2.87
2018-04-13T00:58:22.667Z,3.00
2018-04-13T01:00:49.871Z,6.80
2018-04-13T01:03:22.379Z,3.13
2018-04-13T01:05:55.644Z,3.93
2018-04-13T01:08:22.754Z,3.77
2018-04-13T01:10:49.838Z,3.43
2018-04-13T01:13:16.952Z,5.13
2018-04-13T01:15:44.847Z,4.13
2018-04-13T01:18:17.373Z,3.50
2018-04-13T01:20:44.452Z,4.37
2018-04-13T01:23:12.298Z,2.97
2018-04-13T01:25:44.824Z,3.23
2018-04-13T01:28:11.992Z,3.07
2018-04-13T01:30:39.143Z,2.63
2018-04-13T01:33:06.262Z,3.87
2018-04-13T01:35:33.365Z,2.53
2018-04-13T01:38:06.792Z,5.23
2018-04-13T01:40:33.942Z,3.37
2018-04-13T01:43:01.037Z,5.10
2018-04-13T01:45:28.148Z,3.00
2018-04-13T01:47:56.057Z,3.23
2018-04-13T01:50:28.688Z,3.40
2018-04-13T01:53:01.418Z,2.67
2018-04-13T01:55:28.613Z,4.30
2018-04-13T01:57:55.778Z,4.13
2018-04-13T02:00:22.875Z,4.40
2018-04-13T02:02:50.782Z,4.30
2018-04-13T02:05:18.625Z,5.87
2018-04-13T02:07:46.474Z,3.53
2018-04-13T02:10:13.571Z,5.93
2018-04-13T02:12:40.663Z,2.90
2018-04-13T02:15:07.765Z,4.57
2018-04-13T02:17:35.588Z,4.20
2018-04-13T02:20:02.821Z,3.17
2018-04-13T02:22:30.098Z,4.13
2018-04-13T02:25:02.658Z,4.93
2018-04-13T02:27:29.754Z,3.43
2018-04-13T02:29:57.652Z,2.73
2018-04-13T02:32:24.775Z,3.40
2018-04-13T02:34:52.642Z,3.00
2018-04-13T02:37:19.731Z,2.63
2018-04-13T02:39:46.832Z,2.67
2018-04-13T02:42:14.047Z,2.47
2018-04-13T02:44:46.541Z,5.23
2018-04-13T02:47:13.687Z,5.53
2018-04-13T02:49:47.260Z,3.37
2018-04-13T02:52:14.110Z,2.90
2018-04-13T02:54:41.354Z,2.10
2018-04-13T02:57:08.453Z,3.40
2018-04-13T02:59:35.553Z,2.60
2018-04-13T03:02:02.650Z,2.73
2018-04-13T03:04:29.784Z,3.30
2018-04-13T03:06:56.899Z,2.80
2018-04-13T03:09:24.822Z,3.33
2018-04-13T03:11:57.503Z,3.00
2018-04-13T03:14:24.655Z,3.40
2018-04-13T03:16:51.755Z,2.37
2018-04-13T03:19:18.843Z,3.77
2018-04-13T03:21:45.931Z,3.63
2018-04-13T03:24:13.775Z,2.00
2018-04-13T03:26:46.293Z,4.07
2018-04-13T03:29:14.193Z,2.43
2018-04-13T03:31:41.345Z,1.50
2018-04-13T03:34:08.493Z,5.33
2018-04-13T03:36:36.364Z,3.33
2018-04-13T03:39:04.244Z,2.80
2018-04-13T03:41:31.871Z,2.97
2018-04-13T03:43:58.972Z,1.80
2018-04-13T03:46:26.846Z,2.87
2018-04-13T03:48:54.712Z,2.63
2018-04-13T03:51:22.714Z,2.03
2018-04-13T03:53:49.818Z,2.50
2018-04-13T03:56:16.938Z,5.07
2018-04-13T03:58:44.057Z,4.70
2018-04-13T04:01:11.186Z,4.07
2018-04-13T04:03:38.303Z,2.53
2018-04-13T04:06:10.829Z,2.03
2018-04-13T04:08:37.976Z,3.07
2018-04-13T04:11:05.071Z,3.33
2018-04-13T04:13:33.149Z,5.20
2018-04-13T04:16:00.309Z,2.23
2018-04-13T04:18:27.412Z,3.37
2018-04-13T04:20:55.283Z,4.20
2018-04-13T04:23:28.657Z,3.37
2018-04-13T04:25:55.878Z,3.97
2018-04-13T04:28:22.995Z,3.13
2018-04-13T04:30:50.915Z,3.43
2018-04-13T04:33:18.140Z,4.83
2018-04-13T04:35:45.296Z,4.23
2018-04-13T04:38:12.173Z,2.77
2018-04-13T04:40:39.337Z,2.27
2018-04-13T04:43:07.257Z,1.40
2018-04-13T04:45:35.135Z,2.93
2018-04-13T04:48:02.237Z,2.60
2018-04-13T04:50:30.149Z,4.33
2018-04-13T04:52:57.260Z,4.00
2018-04-13T04:55:24.370Z,2.90
2018-04-13T04:57:52.237Z,2.57
2018-04-13T05:00:25.644Z,3.50
2018-04-13T05:02:53.509Z,5.40
2018-04-13T05:05:21.404Z,1.77
2018-04-13T05:07:48.506Z,2.30
2018-04-13T05:10:16.376Z,4.07
2018-04-13T05:12:49.612Z,2.33
2018-04-13T05:15:16.780Z,2.50
2018-04-13T05:17:43.874Z,6.20
2018-04-13T05:20:10.978Z,3.20
2018-04-13T05:22:43.554Z,2.73
2018-04-13T05:25:11.418Z,2.40
2018-04-13T05:27:38.519Z,2.43
2018-04-13T05:30:05.625Z,3.63
2018-04-13T05:32:32.736Z,4.03
2018-04-13T05:34:59.837Z,2.27
2018-04-13T05:37:26.946Z,4.33
2018-04-13T05:39:54.816Z,8.60
2018-04-13T05:42:22.716Z,3.77
2018-04-13T05:44:49.816Z,7.93
2018-04-13T05:47:17.674Z,3.83
2018-04-13T05:49:45.692Z,4.07
2018-04-13T05:52:12.838Z,2.23
2018-04-13T05:54:39.937Z,6.07
2018-04-13T05:57:07.024Z,3.47
2018-04-13T05:59:34.120Z,4.37
2018-04-13T06:02:01.286Z,5.27
2018-04-13T06:04:28.383Z,1.90
2018-04-13T06:06:55.376Z,3.37
2018-04-13T06:09:22.525Z,4.73
2018-04-13T06:11:49.628Z,1.80
2018-04-13T06:14:16.827Z,3.13
2018-04-13T06:16:43.925Z,3.30
2018-04-13T06:19:11.094Z,4.37
2018-04-13T06:21:38.243Z,8.40
2018-04-13T06:24:05.327Z,9.10
2018-04-13T06:26:32.515Z,7.63
2018-04-13T06:28:59.619Z,3.07
2018-04-13T06:31:27.531Z,6.00
2018-04-13T06:34:00.040Z,3.47
2018-04-13T06:36:26.910Z,2.77
2018-04-13T06:38:54.019Z,6.50
2018-04-13T06:41:21.114Z,2.03
2018-04-13T06:43:49.000Z,4.73
2018-04-13T06:46:16.869Z,1.50
2018-04-13T06:48:44.809Z,3.63
2018-04-13T06:51:12.077Z,5.67
2018-04-13T06:53:39.174Z,10.43
2018-04-13T06:56:11.836Z,14.20
2018-04-13T06:58:44.464Z,6.07
2018-04-13T07:01:12.417Z,8.97
2018-04-13T07:03:39.671Z,6.00
2018-04-13T07:06:06.809Z,8.53
2018-04-13T07:08:33.966Z,14.07
2018-04-13T07:11:01.056Z,9.77
2018-04-13T07:13:28.176Z,11.53
2018-04-13T07:15:56.058Z,7.27
2018-04-13T07:18:23.191Z,9.17
2018-04-13T07:20:50.278Z,10.33
2018-04-13T07:23:17.482Z,5.47
2018-04-13T07:25:44.605Z,5.90
2018-04-13T07:28:12.611Z,5.80
2018-04-13T07:30:39.680Z,4.77
2018-04-13T07:33:07.281Z,6.57
2018-04-13T07:35:39.680Z,3.87
2018-04-13T07:38:06.829Z,9.00
2018-04-13T07:40:33.968Z,7.30
2018-04-13T07:43:01.392Z,6.70
2018-04-13T07:45:28.418Z,7.33
2018-04-13T07:47:56.350Z,14.67
2018-04-13T07:50:23.582Z,6.03
2018-04-13T07:52:50.689Z,6.53
2018-04-13T07:55:18.551Z,8.33
2018-04-13T07:57:45.740Z,3.07
2018-04-13T08:00:12.954Z,12.50
2018-04-13T08:02:40.058Z,6.97
2018-04-13T08:05:08.284Z,8.83
2018-04-13T08:07:35.397Z,4.50
2018-04-13T08:10:02.476Z,8.37
2018-04-13T08:12:29.604Z,5.13
2018-04-13T08:14:57.599Z,9.47
2018-04-13T08:17:24.712Z,8.17
2018-04-13T08:19:51.787Z,6.30
2018-04-13T08:22:24.400Z,8.87
2018-04-13T08:24:58.132Z,4.47
2018-04-13T08:27:26.137Z,8.27
2018-04-13T08:29:58.643Z,12.40
2018-04-13T08:32:25.884Z,2.80
2018-04-13T08:34:53.217Z,8.93
2018-04-13T08:37:25.857Z,5.87
2018-04-13T08:39:54.864Z,12.47
2018-04-13T08:42:21.800Z,3.70
2018-04-13T08:44:48.921Z,3.27
2018-04-13T08:47:16.029Z,6.70
2018-04-13T08:49:43.149Z,12.50
2018-04-13T08:52:10.229Z,4.30
2018-04-13T08:54:37.333Z,12.90
2018-04-13T08:57:04.419Z,8.17
2018-04-13T09:10:41.393Z,6.00
2018-04-13T09:16:58.944Z,6.47
2018-04-13T09:19:26.068Z,6.57
2018-04-13T09:21:53.208Z,12.53
2018-04-13T09:24:20.345Z,10.20
2018-04-13T09:26:47.559Z,5.83
2018-04-13T09:29:14.881Z,8.00
2018-04-13T09:31:42.797Z,8.47
2018-04-13T09:34:10.255Z,6.33
2018-04-13T09:36:37.423Z,9.10
2018-04-13T09:39:04.363Z,8.10
2018-04-13T09:41:31.619Z,8.03
2018-04-13T09:43:58.763Z,5.10
2018-04-13T09:46:25.899Z,7.00
2018-04-13T09:48:53.045Z,6.17
2018-04-13T09:51:20.204Z,7.90
2018-04-13T09:53:47.340Z,5.30
2018-04-13T09:56:14.504Z,7.30
2018-04-13T09:58:41.648Z,7.00
2018-04-13T10:01:08.561Z,6.70
2018-04-13T10:03:41.924Z,5.50
2018-04-13T10:06:09.051Z,4.90
2018-04-13T10:08:36.191Z,7.27
2018-04-13T10:11:03.349Z,9.13
2018-04-13T10:13:30.489Z,13.87
2018-04-13T10:16:03.234Z,4.60
2018-04-13T10:18:30.377Z,6.30
2018-04-13T10:20:57.534Z,5.97
2018-04-13T10:23:24.685Z,10.20
2018-04-13T10:25:51.851Z,4.67
2018-04-13T10:28:19.099Z,6.50
2018-04-13T10:30:46.349Z,6.43
2018-04-13T10:33:13.485Z,7.33
2018-04-13T10:35:40.634Z,6.90
2018-04-13T10:38:07.781Z,7.47
2018-04-13T10:40:35.008Z,8.07
2018-04-13T10:43:07.585Z,5.83
2018-04-13T10:45:34.741Z,6.60
2018-04-13T10:48:01.908Z,10.70
2018-04-13T10:50:29.048Z,4.03
2018-04-13T10:52:56.944Z,8.07
2018-04-13T10:55:24.101Z,4.73
2018-04-13T10:57:51.246Z,5.90
2018-04-13T11:00:18.382Z,6.63
2018-04-13T11:02:46.282Z,5.07
2018-04-13T11:05:13.428Z,6.87
2018-04-13T11:07:40.586Z,8.10
2018-04-13T11:10:07.749Z,6.50
2018-04-13T11:12:34.886Z,9.87
2018-04-13T11:15:02.131Z,6.70
2018-04-13T11:17:29.264Z,8.23
2018-04-13T11:19:56.434Z,9.30
2018-04-13T11:22:23.555Z,5.47
2018-04-13T11:24:50.697Z,7.03
2018-04-13T11:27:23.587Z,5.90
2018-04-13T11:29:56.365Z,4.40
2018-04-13T11:32:23.523Z,5.47
2018-04-13T11:34:51.428Z,7.40
2018-04-13T11:37:18.563Z,4.03
2018-04-13T11:39:45.471Z,4.87
2018-04-13T11:42:18.074Z,8.53
2018-04-13T11:44:45.218Z,5.47
2018-04-13T11:47:12.344Z,4.53
2018-04-13T11:49:45.003Z,4.83
2018-04-13T11:52:12.915Z,9.40
2018-04-13T11:54:40.072Z,9.43
2018-04-13T11:57:08.008Z,10.57
2018-04-13T11:59:35.174Z,2.97
2018-04-13T12:02:02.122Z,5.77
2018-04-13T12:04:30.098Z,5.00
2018-04-13T12:06:57.266Z,7.67
2018-04-13T12:09:25.195Z,5.13
2018-04-13T12:11:52.541Z,6.30
2018-04-13T12:14:19.756Z,4.07
2018-04-13T12:16:46.874Z,8.10
2018-04-13T12:19:14.109Z,9.33
2018-04-13T12:21:41.220Z,4.97
2018-04-13T12:24:09.127Z,3.07
2018-04-13T12:26:36.286Z,3.40
2018-04-13T12:29:03.393Z,4.43
2018-04-13T12:31:30.315Z,11.43
2018-04-13T12:33:57.242Z,4.93
2018-04-13T12:36:24.385Z,8.53
2018-04-13T12:38:51.578Z,13.00
2018-04-13T12:41:19.479Z,7.87
2018-04-13T12:43:46.617Z,9.10
2018-04-13T12:46:13.793Z,9.90
2018-04-13T12:48:40.967Z,8.50
2018-04-13T12:51:08.105Z,4.87
2018-04-13T12:53:36.042Z,5.83
2018-04-13T12:56:03.396Z,6.00
2018-04-13T12:58:30.715Z,5.80
2018-04-13T13:00:57.869Z,5.43
2018-04-13T13:03:25.023Z,7.93
2018-04-13T13:05:52.940Z,5.53
2018-04-13T13:08:20.075Z,6.60
2018-04-13T13:10:47.231Z,15.40
2018-04-13T13:13:14.391Z,16.67
2018-04-13T13:15:41.621Z,19.33
2018-04-13T13:18:08.703Z,17.17
2018-04-13T13:20:36.429Z,17.13
2018-04-13T13:23:03.591Z,15.27
2018-04-13T13:25:30.745Z,13.70
2018-04-13T13:27:57.887Z,12.40
2018-04-13T13:30:25.030Z,11.27
2018-04-13T13:32:52.927Z,9.90
2018-04-13T13:35:20.090Z,9.83
2018-04-13T13:37:47.231Z,12.67
2018-04-13T13:40:14.502Z,8.23
2018-04-13T13:42:41.655Z,10.63
2018-04-13T13:45:08.911Z,11.27
2018-04-13T13:47:36.043Z,9.00
2018-04-13T13:50:03.185Z,11.90
2018-04-13T13:52:30.455Z,7.63
2018-04-13T13:54:57.579Z,7.17
2018-04-13T13:57:24.756Z,7.53
2018-04-13T13:59:51.915Z,6.33
2018-04-13T14:02:19.073Z,8.13
2018-04-13T14:04:47.089Z,5.50
2018-04-13T14:07:14.243Z,7.70
2018-04-13T14:09:41.419Z,5.37
2018-04-13T14:12:08.582Z,10.30
2018-04-13T14:14:35.717Z,4.83
2018-04-13T14:17:02.886Z,5.13
2018-04-13T14:19:30.050Z,7.63
2018-04-13T14:21:57.201Z,7.47
2018-04-13T14:24:24.353Z,5.13
2018-04-13T14:26:51.593Z,8.20
2018-04-13T14:29:18.773Z,5.43
2018-04-13T14:31:46.028Z,8.80
2018-04-13T14:34:13.244Z,5.90
2018-04-13T14:36:40.389Z,5.13
2018-04-13T14:39:07.619Z,11.17
2018-04-13T14:41:34.755Z,4.70
2018-04-13T14:44:01.927Z,4.50
2018-04-13T14:46:29.860Z,14.70
2018-04-13T14:48:57.008Z,5.60
2018-04-13T14:51:24.932Z,7.17
2018-04-13T14:53:52.110Z,13.80
2018-04-13T14:56:19.276Z,7.90
2018-04-13T14:58:46.385Z,13.50
2018-04-13T15:01:14.335Z,6.33
2018-04-13T15:03:42.252Z,4.57
2018-04-13T15:06:09.365Z,7.60
2018-04-13T15:08:36.518Z,6.90
2018-04-13T15:11:03.679Z,9.00
2018-04-13T15:13:30.989Z,15.63
2018-04-13T15:15:58.133Z,12.13
2018-04-13T15:18:25.345Z,19.50
2018-04-13T15:20:52.652Z,4.07
2018-04-13T15:23:19.908Z,6.00
2018-04-13T15:25:47.825Z,8.63
2018-04-13T15:28:15.078Z,13.50
2018-04-13T15:30:42.226Z,5.63
2018-04-13T15:33:09.389Z,10.70
2018-04-13T15:35:36.534Z,7.73
2018-04-13T15:38:03.697Z,8.93
2018-04-13T15:40:30.839Z,10.00
2018-04-13T15:42:57.986Z,6.60
2018-04-13T15:45:25.138Z,11.40
2018-04-13T15:47:52.312Z,10.00
2018-04-13T15:50:20.274Z,9.60
2018-04-13T15:52:48.186Z,6.33
2018-04-13T15:55:15.333Z,12.43
2018-04-13T15:57:42.478Z,8.43
2018-04-13T16:00:09.608Z,8.50
2018-04-13T16:02:36.762Z,7.90
2018-04-13T16:05:03.941Z,12.63
2018-04-13T16:07:31.070Z,9.67
2018-04-13T16:09:58.918Z,9.63
2018-04-13T16:12:26.068Z,10.23
2018-04-13T16:14:53.225Z,15.43
2018-04-13T16:17:20.396Z,10.93
2018-04-13T16:19:47.748Z,11.23
2018-04-13T16:22:14.898Z,11.87
2018-04-13T16:24:42.025Z,14.70
2018-04-13T16:27:09.200Z,12.10
2018-04-13T16:29:36.348Z,13.00
2018-04-13T16:32:03.601Z,12.60
2018-04-13T16:34:30.857Z,12.10
2018-04-13T16:36:58.013Z,12.47
2018-04-13T16:39:25.154Z,13.93
2018-04-13T16:41:52.360Z,9.00
2018-04-13T16:44:19.488Z,9.57
2018-04-13T16:46:47.410Z,13.13
2018-04-13T16:49:14.550Z,14.57
2018-04-13T16:51:41.728Z,10.83
2018-04-13T16:54:08.900Z,10.20
2018-04-13T16:56:36.086Z,12.07
2018-04-13T16:59:04.000Z,12.97
2018-04-13T17:01:31.197Z,11.47
2018-04-13T17:03:59.129Z,12.33
2018-04-13T17:06:26.288Z,12.70
2018-04-13T17:08:53.426Z,17.53
2018-04-13T17:11:21.344Z,11.83
2018-04-13T17:13:48.490Z,10.93
2018-04-13T17:16:15.671Z,11.70
2018-04-13T17:18:42.812Z,10.20
2018-04-13T17:21:10.024Z,11.70
2018-04-13T17:23:37.187Z,8.80
2018-04-13T17:26:04.299Z,11.70
2018-04-13T17:28:31.444Z,11.37
2018-04-13T17:30:58.705Z,7.53
2018-04-13T17:33:25.852Z,14.27
2018-04-13T17:35:53.062Z,12.73
2018-04-13T17:38:20.251Z,11.80
2018-04-13T17:40:47.395Z,11.60
2018-04-13T17:43:14.577Z,13.37
2018-04-13T17:45:41.712Z,11.73
2018-04-13T17:50:47.526Z,17.90
2018-04-13T17:53:14.652Z,12.50
2018-04-13T17:55:41.829Z,16.03
2018-04-13T17:58:08.985Z,10.13
2018-04-13T18:00:36.154Z,8.83
2018-04-13T18:03:03.445Z,9.57
2018-04-13T18:05:30.665Z,10.10
2018-04-13T18:07:57.815Z,12.40
2018-04-13T18:10:24.982Z,10.23
2018-04-13T18:12:52.121Z,12.30
2018-04-13T18:15:19.244Z,8.20
2018-04-13T18:17:47.163Z,17.10
2018-04-13T18:20:14.313Z,9.20
2018-04-13T18:22:41.453Z,8.57
2018-04-13T18:25:09.560Z,10.43
2018-04-13T18:27:36.794Z,9.90
2018-04-13T18:30:03.939Z,9.37
2018-04-13T18:32:31.092Z,7.87
2018-04-13T18:34:59.037Z,11.43
2018-04-13T18:37:26.280Z,12.37
2018-04-13T18:39:53.446Z,11.50
2018-04-13T18:42:20.609Z,10.13
2018-04-13T18:44:47.783Z,11.43
2018-04-13T18:47:14.685Z,8.70
2018-04-13T18:49:41.846Z,8.77
2018-04-13T18:52:08.961Z,10.17
2018-04-13T18:54:36.917Z,12.13
2018-04-13T18:57:04.088Z,14.93
2018-04-13T18:59:31.234Z,14.47
2018-04-13T19:01:58.398Z,9.80
2018-04-13T19:04:25.594Z,12.17
2018-04-13T19:06:52.934Z,9.77
2018-04-13T19:09:20.082Z,9.20
2018-04-13T19:11:47.245Z,15.40
2018-04-13T19:14:14.401Z,7.80
2018-04-13T19:16:41.650Z,19.17
2018-04-13T19:19:08.798Z,13.57
2018-04-13T19:21:35.945Z,10.77
2018-04-13T19:24:03.075Z,13.27
2018-04-13T19:26:31.395Z,21.47
2018-04-13T19:28:58.545Z,10.47
2018-04-13T19:31:25.689Z,14.57
2018-04-13T19:33:52.936Z,16.60
2018-04-13T19:36:20.100Z,16.77
2018-04-13T19:38:47.280Z,22.63
2018-04-13T19:41:14.422Z,17.77
2018-04-13T19:43:41.552Z,10.87
2018-04-13T19:46:08.705Z,15.27
2018-04-13T19:48:35.833Z,10.27
2018-04-13T19:51:02.967Z,15.07
2018-04-13T19:53:30.151Z,16.57
2018-04-13T19:55:57.317Z,19.47
2018-04-13T19:58:24.476Z,12.23
2018-04-13T20:00:52.490Z,13.00
2018-04-13T20:03:19.391Z,13.90
2018-04-13T20:05:47.317Z,7.03
2018-04-13T20:08:14.464Z,18.83
2018-04-13T20:10:41.651Z,15.67
2018-04-13T20:13:08.857Z,14.27
2018-04-13T20:15:36.032Z,14.10
2018-04-13T20:18:03.176Z,12.07
2018-04-13T20:20:30.359Z,15.83
2018-04-13T20:22:57.478Z,13.70
2018-04-13T20:25:25.373Z,14.17
2018-04-13T20:27:52.538Z,13.77
2018-04-13T20:30:19.684Z,8.70
2018-04-13T20:32:46.944Z,12.83
2018-04-13T20:35:14.115Z,8.83
2018-04-13T20:37:41.272Z,11.70
2018-04-13T20:40:08.403Z,9.13
2018-04-13T20:42:37.412Z,10.67
2018-04-13T20:45:05.330Z,13.10
2018-04-13T20:47:32.458Z,9.50
2018-04-13T20:49:59.802Z,9.50
2018-04-13T20:52:26.951Z,14.27
2018-04-13T20:54:54.126Z,9.40
2018-04-13T20:57:21.034Z,13.00
2018-04-13T20:59:48.180Z,12.90
2018-04-13T21:02:15.454Z,9.47
2018-04-13T21:04:42.604Z,12.07
2018-04-13T21:07:09.728Z,12.17
2018-04-13T21:09:36.851Z,10.43
2018-04-13T21:12:03.999Z,8.07
2018-04-13T21:14:31.138Z,12.07
2018-04-13T21:16:58.292Z,10.80
2018-04-13T21:19:25.444Z,11.80
2018-04-13T21:21:52.664Z,10.20
2018-04-13T21:24:19.559Z,6.73
2018-04-13T21:26:46.721Z,6.20
2018-04-13T21:29:13.889Z,10.13
2018-04-13T21:31:41.044Z,5.97
2018-04-13T21:34:08.198Z,9.30
2018-04-13T21:36:35.343Z,7.97
2018-04-13T21:39:02.515Z,8.50
2018-04-13T21:41:29.680Z,6.83
2018-04-13T21:43:56.845Z,9.70
2018-04-13T21:46:24.857Z,7.53
2018-04-13T21:48:52.002Z,9.87
2018-04-13T21:51:19.165Z,7.30
2018-04-13T21:53:46.406Z,7.57
2018-04-13T21:56:13.570Z,12.17
2018-04-13T21:58:40.742Z,7.43
2018-04-13T22:01:07.909Z,10.37
2018-04-13T22:03:35.827Z,5.77
2018-04-13T22:06:02.988Z,9.40
2018-04-13T22:08:30.120Z,8.30
2018-04-13T22:10:57.267Z,5.97
2018-04-13T22:13:24.599Z,5.73
2018-04-13T22:15:51.767Z,7.33
2018-04-13T22:18:18.917Z,5.77
2018-04-13T22:20:46.610Z,7.23
2018-04-13T22:23:13.953Z,7.20
2018-04-13T22:25:41.094Z,6.47
2018-04-13T22:28:08.246Z,7.03
2018-04-13T22:30:35.408Z,5.93
2018-04-13T22:33:02.551Z,6.43
2018-04-13T22:35:30.442Z,6.07
2018-04-13T22:37:57.628Z,5.83
2018-04-13T22:40:24.554Z,10.37
2018-04-13T22:42:51.707Z,7.67
2018-04-13T22:45:18.964Z,9.47
2018-04-13T22:47:46.221Z,4.47
2018-04-13T22:50:13.391Z,8.10
2018-04-13T22:52:40.710Z,12.07
2018-04-13T22:55:07.845Z,10.50
2018-04-13T22:57:35.002Z,12.37
2018-04-13T23:00:02.158Z,7.97
2018-04-13T23:02:29.286Z,10.70
2018-04-13T23:04:56.447Z,9.37
2018-04-13T23:07:24.522Z,7.83
2018-04-13T23:09:51.677Z,14.23
2018-04-13T23:12:18.796Z,23.40
2018-04-13T23:14:46.721Z,12.60
2018-04-13T23:17:13.846Z,34.50
2018-04-13T23:19:41.015Z,18.97
2018-04-13T23:22:08.165Z,14.17
2018-04-13T23:24:35.310Z,13.90
2018-04-13T23:27:02.476Z,18.03
2018-04-13T23:29:29.595Z,20.13
2018-04-13T23:31:57.502Z,19.27
2018-04-13T23:34:24.635Z,14.43
2018-04-13T23:36:52.567Z,17.23
2018-04-13T23:39:19.709Z,20.60
2018-04-13T23:41:46.835Z,14.90
2018-04-13T23:44:13.990Z,23.20
2018-04-13T23:46:41.166Z,17.70
2018-04-13T23:49:08.306Z,23.57
2018-04-13T23:51:35.516Z,12.77
2018-04-13T23:54:02.698Z,17.20
2018-04-13T23:56:29.871Z,9.57
2018-04-13T23:58:57.002Z,9.43
